sensor_id;sensor_type;location;lat;lon;timestamp;temperature;humidity
4548;DHT22;2286;51.570;7.090;2023-08-24T00:01:52;18.70;1.00
4548;DHT22;2286;51.570;7.090;2023-08-24T00:04:19;18.70;1.00
4548;DHT22;2286;51.570;7.090;2023-08-24T00:06:46;18.70;1.00
4548;DHT22;2286;51.570;7.090;2023-08-24T00:09:14;18.60;1.00
4548;DHT22;2286;51.570;7.090;2023-08-24T00:11:41;18.60;1.00
4548;DHT22;2286;51.570;7.090;2023-08-24T00:14:09;18.50;1.00
4548;DHT22;2286;51.570;7.090;2023-08-24T00:16:36;18.50;99.90
4548;DHT22;2286;51.570;7.090;2023-08-24T00:19:03;18.40;99.90
4548;DHT22;2286;51.570;7.090;2023-08-24T00:21:30;18.40;99.90
4548;DHT22;2286;51.570;7.090;2023-08-24T00:23:56;18.30;1.00
4548;DHT22;2286;51.570;7.090;2023-08-24T00:26:26;18.30;1.00
4548;DHT22;2286;51.570;7.090;2023-08-24T00:28:53;18.20;1.00
4548;DHT22;2286;51.570;7.090;2023-08-24T00:31:20;18.10;99.90
4548;DHT22;2286;51.570;7.090;2023-08-24T00:33:46;18.10;22.70
4548;DHT22;2286;51.570;7.090;2023-08-24T00:36:16;18.00;99.90
4548;DHT22;2286;51.570;7.090;2023-08-24T00:38:43;18.00;99.90
4548;DHT22;2286;51.570;7.090;2023-08-24T00:41:10;18.00;99.90
4548;DHT22;2286;51.570;7.090;2023-08-24T00:43:40;18.00;99.90
4548;DHT22;2286;51.570;7.090;2023-08-24T00:46:07;17.90;99.90
4548;DHT22;2286;51.570;7.090;2023-08-24T00:48:33;17.80;1.00
4548;DHT22;2286;51.570;7.090;2023-08-24T00:51:01;17.80;1.00
4548;DHT22;2286;51.570;7.090;2023-08-24T00:53:30;17.80;1.00
4548;DHT22;2286;51.570;7.090;2023-08-24T00:55:57;17.70;1.00
4548;DHT22;2286;51.570;7.090;2023-08-24T00:58:24;17.70;99.90
4548;DHT22;2286;51.570;7.090;2023-08-24T01:00:55;17.60;1.00
4548;DHT22;2286;51.570;7.090;2023-08-24T01:03:22;17.50;1.00
4548;DHT22;2286;51.570;7.090;2023-08-24T01:05:49;17.50;99.90
4548;DHT22;2286;51.570;7.090;2023-08-24T01:08:16;17.50;99.90
4548;DHT22;2286;51.570;7.090;2023-08-24T01:10:48;17.50;99.90
4548;DHT22;2286;51.570;7.090;2023-08-24T01:13:21;17.50;1.00
4548;DHT22;2286;51.570;7.090;2023-08-24T01:15:58;17.40;99.90
4548;DHT22;2286;51.570;7.090;2023-08-24T01:18:28;17.40;1.00
4548;DHT22;2286;51.570;7.090;2023-08-24T01:20:57;17.40;58.50
4548;DHT22;2286;51.570;7.090;2023-08-24T01:23:33;17.30;1.00
4548;DHT22;2286;51.570;7.090;2023-08-24T01:26:10;17.30;1.00
4548;DHT22;2286;51.570;7.090;2023-08-24T01:28:38;17.20;1.00
4548;DHT22;2286;51.570;7.090;2023-08-24T01:31:05;17.20;1.00
4548;DHT22;2286;51.570;7.090;2023-08-24T01:33:33;17.20;1.00
4548;DHT22;2286;51.570;7.090;2023-08-24T01:36:00;17.20;1.00
4548;DHT22;2286;51.570;7.090;2023-08-24T01:38:27;17.10;1.00
4548;DHT22;2286;51.570;7.090;2023-08-24T01:44:20;17.10;99.90
4548;DHT22;2286;51.570;7.090;2023-08-24T01:46:48;17.10;99.90
4548;DHT22;2286;51.570;7.090;2023-08-24T01:49:17;17.00;99.90
4548;DHT22;2286;51.570;7.090;2023-08-24T01:51:46;17.00;99.90
4548;DHT22;2286;51.570;7.090;2023-08-24T01:54:13;17.00;1.00
4548;DHT22;2286;51.570;7.090;2023-08-24T01:56:40;16.90;1.00
4548;DHT22;2286;51.570;7.090;2023-08-24T01:59:06;16.90;1.00
4548;DHT22;2286;51.570;7.090;2023-08-24T02:01:35;16.90;1.00
4548;DHT22;2286;51.570;7.090;2023-08-24T02:04:01;16.80;1.00
4548;DHT22;2286;51.570;7.090;2023-08-24T02:06:29;16.80;99.90
4548;DHT22;2286;51.570;7.090;2023-08-24T02:08:56;16.90;99.90
4548;DHT22;2286;51.570;7.090;2023-08-24T02:11:23;16.80;99.90
4548;DHT22;2286;51.570;7.090;2023-08-24T02:13:49;16.80;1.00
4548;DHT22;2286;51.570;7.090;2023-08-24T02:16:16;16.80;1.00
4548;DHT22;2286;51.570;7.090;2023-08-24T02:18:44;16.80;1.00
4548;DHT22;2286;51.570;7.090;2023-08-24T02:21:11;16.80;1.00
4548;DHT22;2286;51.570;7.090;2023-08-24T02:23:39;16.80;1.00
4548;DHT22;2286;51.570;7.090;2023-08-24T02:26:07;16.70;1.00
4548;DHT22;2286;51.570;7.090;2023-08-24T02:28:37;16.70;1.00
4548;DHT22;2286;51.570;7.090;2023-08-24T02:31:04;16.70;1.00
4548;DHT22;2286;51.570;7.090;2023-08-24T02:33:32;16.70;1.00
4548;DHT22;2286;51.570;7.090;2023-08-24T02:36:00;16.60;1.00
4548;DHT22;2286;51.570;7.090;2023-08-24T02:38:27;16.60;1.00
4548;DHT22;2286;51.570;7.090;2023-08-24T02:41:01;16.70;99.90
4548;DHT22;2286;51.570;7.090;2023-08-24T02:43:28;16.70;99.90
4548;DHT22;2286;51.570;7.090;2023-08-24T02:46:00;16.70;99.90
4548;DHT22;2286;51.570;7.090;2023-08-24T02:48:27;16.70;99.90
4548;DHT22;2286;51.570;7.090;2023-08-24T02:50:54;16.70;99.90
4548;DHT22;2286;51.570;7.090;2023-08-24T02:53:22;16.70;99.90
4548;DHT22;2286;51.570;7.090;2023-08-24T02:55:49;16.80;99.90
4548;DHT22;2286;51.570;7.090;2023-08-24T02:58:16;16.80;99.90
4548;DHT22;2286;51.570;7.090;2023-08-24T03:00:42;16.80;99.90
4548;DHT22;2286;51.570;7.090;2023-08-24T03:03:09;16.90;99.90
4548;DHT22;2286;51.570;7.090;2023-08-24T03:05:36;16.90;99.90
4548;DHT22;2286;51.570;7.090;2023-08-24T03:08:03;17.00;99.90
4548;DHT22;2286;51.570;7.090;2023-08-24T03:10:34;17.00;99.90
4548;DHT22;2286;51.570;7.090;2023-08-24T03:13:01;17.10;58.70
4548;DHT22;2286;51.570;7.090;2023-08-24T03:15:29;17.10;36.20
4548;DHT22;2286;51.570;7.090;2023-08-24T03:17:56;17.10;99.90
4548;DHT22;2286;51.570;7.090;2023-08-24T03:20:23;17.10;99.90
4548;DHT22;2286;51.570;7.090;2023-08-24T03:22:50;17.10;91.90
4548;DHT22;2286;51.570;7.090;2023-08-24T03:25:17;17.10;95.70
4548;DHT22;2286;51.570;7.090;2023-08-24T03:27:45;17.20;99.90
4548;DHT22;2286;51.570;7.090;2023-08-24T03:30:13;17.20;99.90
4548;DHT22;2286;51.570;7.090;2023-08-24T03:32:41;17.30;64.10
4548;DHT22;2286;51.570;7.090;2023-08-24T03:35:08;17.30;1.00
4548;DHT22;2286;51.570;7.090;2023-08-24T03:37:34;17.30;1.00
4548;DHT22;2286;51.570;7.090;2023-08-24T03:40:02;17.30;1.00
4548;DHT22;2286;51.570;7.090;2023-08-24T03:42:29;17.40;1.00
4548;DHT22;2286;51.570;7.090;2023-08-24T03:44:59;17.40;1.00
4548;DHT22;2286;51.570;7.090;2023-08-24T03:47:26;17.40;1.00
4548;DHT22;2286;51.570;7.090;2023-08-24T03:49:53;17.40;1.00
4548;DHT22;2286;51.570;7.090;2023-08-24T03:52:20;17.50;1.00
4548;DHT22;2286;51.570;7.090;2023-08-24T03:54:47;17.50;1.00
4548;DHT22;2286;51.570;7.090;2023-08-24T03:57:14;17.50;1.00
4548;DHT22;2286;51.570;7.090;2023-08-24T03:59:42;17.60;1.00
4548;DHT22;2286;51.570;7.090;2023-08-24T04:02:10;17.60;99.90
4548;DHT22;2286;51.570;7.090;2023-08-24T04:04:37;17.60;99.90
4548;DHT22;2286;51.570;7.090;2023-08-24T04:07:04;17.60;99.90
4548;DHT22;2286;51.570;7.090;2023-08-24T04:09:30;17.70;99.90
4548;DHT22;2286;51.570;7.090;2023-08-24T04:11:57;17.60;99.90
4548;DHT22;2286;51.570;7.090;2023-08-24T04:14:24;17.60;1.00
4548;DHT22;2286;51.570;7.090;2023-08-24T04:16:51;17.70;1.00
4548;DHT22;2286;51.570;7.090;2023-08-24T04:19:20;17.70;99.90
4548;DHT22;2286;51.570;7.090;2023-08-24T04:21:47;17.70;99.90
4548;DHT22;2286;51.570;7.090;2023-08-24T04:24:14;17.80;99.90
4548;DHT22;2286;51.570;7.090;2023-08-24T04:26:40;17.80;99.90
4548;DHT22;2286;51.570;7.090;2023-08-24T04:29:07;17.90;99.90
4548;DHT22;2286;51.570;7.090;2023-08-24T04:31:34;17.90;99.90
4548;DHT22;2286;51.570;7.090;2023-08-24T04:34:03;17.90;99.90
4548;DHT22;2286;51.570;7.090;2023-08-24T04:36:31;17.90;1.00
4548;DHT22;2286;51.570;7.090;2023-08-24T04:38:58;17.80;1.00
4548;DHT22;2286;51.570;7.090;2023-08-24T04:41:27;17.80;99.90
4548;DHT22;2286;51.570;7.090;2023-08-24T04:43:54;17.80;99.90
4548;DHT22;2286;51.570;7.090;2023-08-24T04:46:21;17.70;99.90
4548;DHT22;2286;51.570;7.090;2023-08-24T04:48:48;17.70;1.00
4548;DHT22;2286;51.570;7.090;2023-08-24T04:51:15;17.70;1.00
4548;DHT22;2286;51.570;7.090;2023-08-24T04:53:43;17.70;1.00
4548;DHT22;2286;51.570;7.090;2023-08-24T04:56:10;17.70;1.00
4548;DHT22;2286;51.570;7.090;2023-08-24T04:58:37;17.70;1.00
4548;DHT22;2286;51.570;7.090;2023-08-24T05:01:04;17.70;1.00
4548;DHT22;2286;51.570;7.090;2023-08-24T05:03:31;17.70;1.00
4548;DHT22;2286;51.570;7.090;2023-08-24T05:05:58;17.70;28.30
4548;DHT22;2286;51.570;7.090;2023-08-24T05:08:25;17.70;97.30
4548;DHT22;2286;51.570;7.090;2023-08-24T05:10:53;17.70;99.90
4548;DHT22;2286;51.570;7.090;2023-08-24T05:13:20;17.80;99.90
4548;DHT22;2286;51.570;7.090;2023-08-24T05:15:48;17.80;99.90
4548;DHT22;2286;51.570;7.090;2023-08-24T05:18:15;17.80;99.90
4548;DHT22;2286;51.570;7.090;2023-08-24T05:20:42;17.80;99.90
4548;DHT22;2286;51.570;7.090;2023-08-24T05:23:08;17.90;99.90
4548;DHT22;2286;51.570;7.090;2023-08-24T05:25:35;17.90;78.40
4548;DHT22;2286;51.570;7.090;2023-08-24T05:28:04;17.90;48.70
4548;DHT22;2286;51.570;7.090;2023-08-24T05:30:31;18.00;1.00
4548;DHT22;2286;51.570;7.090;2023-08-24T05:32:58;18.00;1.00
4548;DHT22;2286;51.570;7.090;2023-08-24T05:35:25;18.10;1.00
4548;DHT22;2286;51.570;7.090;2023-08-24T05:37:53;18.20;1.00
4548;DHT22;2286;51.570;7.090;2023-08-24T05:40:20;18.10;1.00
4548;DHT22;2286;51.570;7.090;2023-08-24T05:42:46;18.20;1.00
4548;DHT22;2286;51.570;7.090;2023-08-24T05:45:15;18.20;1.00
4548;DHT22;2286;51.570;7.090;2023-08-24T05:47:42;18.20;1.00
4548;DHT22;2286;51.570;7.090;2023-08-24T05:50:09;18.20;1.00
4548;DHT22;2286;51.570;7.090;2023-08-24T05:52:37;18.30;1.00
4548;DHT22;2286;51.570;7.090;2023-08-24T05:55:04;18.40;1.00
4548;DHT22;2286;51.570;7.090;2023-08-24T05:57:31;18.50;99.90
4548;DHT22;2286;51.570;7.090;2023-08-24T05:59:58;18.50;99.90
4548;DHT22;2286;51.570;7.090;2023-08-24T06:02:27;18.60;99.90
4548;DHT22;2286;51.570;7.090;2023-08-24T06:04:53;18.60;98.40
4548;DHT22;2286;51.570;7.090;2023-08-24T06:07:20;18.60;29.50
4548;DHT22;2286;51.570;7.090;2023-08-24T06:09:48;18.70;1.00
4548;DHT22;2286;51.570;7.090;2023-08-24T06:12:15;18.70;27.00
4548;DHT22;2286;51.570;7.090;2023-08-24T06:14:42;18.70;20.20
4548;DHT22;2286;51.570;7.090;2023-08-24T06:17:08;18.80;1.00
4548;DHT22;2286;51.570;7.090;2023-08-24T06:19:37;18.90;1.00
4548;DHT22;2286;51.570;7.090;2023-08-24T06:22:04;19.00;1.00
4548;DHT22;2286;51.570;7.090;2023-08-24T06:24:31;19.10;99.90
4548;DHT22;2286;51.570;7.090;2023-08-24T06:26:58;19.10;1.00
4548;DHT22;2286;51.570;7.090;2023-08-24T06:29:27;19.20;1.00
4548;DHT22;2286;51.570;7.090;2023-08-24T06:31:53;19.30;24.20
4548;DHT22;2286;51.570;7.090;2023-08-24T06:34:21;19.40;1.00
4548;DHT22;2286;51.570;7.090;2023-08-24T06:36:50;19.50;1.00
4548;DHT22;2286;51.570;7.090;2023-08-24T06:39:17;19.60;36.60
4548;DHT22;2286;51.570;7.090;2023-08-24T06:41:44;19.70;99.90
4548;DHT22;2286;51.570;7.090;2023-08-24T06:44:12;19.80;99.90
4548;DHT22;2286;51.570;7.090;2023-08-24T06:46:39;19.80;99.90
4548;DHT22;2286;51.570;7.090;2023-08-24T06:49:06;19.90;1.00
4548;DHT22;2286;51.570;7.090;2023-08-24T06:51:33;19.90;99.90
4548;DHT22;2286;51.570;7.090;2023-08-24T06:54:01;20.00;99.90
4548;DHT22;2286;51.570;7.090;2023-08-24T06:56:28;20.00;3.60
4548;DHT22;2286;51.570;7.090;2023-08-24T06:58:55;20.10;99.90
4548;DHT22;2286;51.570;7.090;2023-08-24T07:01:22;20.00;1.00
4548;DHT22;2286;51.570;7.090;2023-08-24T07:03:51;20.00;1.00
4548;DHT22;2286;51.570;7.090;2023-08-24T07:06:18;20.10;99.90
4548;DHT22;2286;51.570;7.090;2023-08-24T07:08:45;20.10;99.90
4548;DHT22;2286;51.570;7.090;2023-08-24T07:11:13;20.20;1.00
4548;DHT22;2286;51.570;7.090;2023-08-24T07:13:40;20.30;99.90
4548;DHT22;2286;51.570;7.090;2023-08-24T07:16:07;20.30;99.90
4548;DHT22;2286;51.570;7.090;2023-08-24T07:18:34;20.40;99.90
4548;DHT22;2286;51.570;7.090;2023-08-24T07:21:01;20.50;28.00
4548;DHT22;2286;51.570;7.090;2023-08-24T07:23:28;20.60;1.00
4548;DHT22;2286;51.570;7.090;2023-08-24T07:25:55;20.70;1.00
4548;DHT22;2286;51.570;7.090;2023-08-24T07:28:23;20.70;1.00
4548;DHT22;2286;51.570;7.090;2023-08-24T07:30:50;20.80;1.00
4548;DHT22;2286;51.570;7.090;2023-08-24T07:33:21;20.90;1.00
4548;DHT22;2286;51.570;7.090;2023-08-24T07:35:48;20.90;99.90
4548;DHT22;2286;51.570;7.090;2023-08-24T07:38:15;21.00;99.90
4548;DHT22;2286;51.570;7.090;2023-08-24T07:40:42;21.10;99.90
4548;DHT22;2286;51.570;7.090;2023-08-24T07:43:08;21.20;97.00
4548;DHT22;2286;51.570;7.090;2023-08-24T07:45:37;21.30;1.00
4548;DHT22;2286;51.570;7.090;2023-08-24T07:48:04;21.40;1.00
4548;DHT22;2286;51.570;7.090;2023-08-24T07:50:31;21.50;1.00
4548;DHT22;2286;51.570;7.090;2023-08-24T07:52:58;21.50;99.90
4548;DHT22;2286;51.570;7.090;2023-08-24T07:55:25;21.60;99.90
4548;DHT22;2286;51.570;7.090;2023-08-24T07:57:52;21.80;99.90
4548;DHT22;2286;51.570;7.090;2023-08-24T08:00:19;22.00;99.90
4548;DHT22;2286;51.570;7.090;2023-08-24T08:02:49;22.10;99.90
4548;DHT22;2286;51.570;7.090;2023-08-24T08:05:16;22.20;99.90
4548;DHT22;2286;51.570;7.090;2023-08-24T08:07:43;22.30;1.00
4548;DHT22;2286;51.570;7.090;2023-08-24T08:10:10;22.40;1.00
4548;DHT22;2286;51.570;7.090;2023-08-24T08:12:37;22.40;1.00
4548;DHT22;2286;51.570;7.090;2023-08-24T08:15:04;22.50;1.00
4548;DHT22;2286;51.570;7.090;2023-08-24T08:17:32;22.60;99.90
4548;DHT22;2286;51.570;7.090;2023-08-24T08:20:01;22.70;99.90
4548;DHT22;2286;51.570;7.090;2023-08-24T08:22:29;22.90;99.90
4548;DHT22;2286;51.570;7.090;2023-08-24T08:25:00;22.90;99.90
4548;DHT22;2286;51.570;7.090;2023-08-24T08:27:28;23.00;99.90
4548;DHT22;2286;51.570;7.090;2023-08-24T08:29:54;23.10;99.90
4548;DHT22;2286;51.570;7.090;2023-08-24T08:32:22;23.30;99.90
4548;DHT22;2286;51.570;7.090;2023-08-24T08:34:53;23.50;95.60
4548;DHT22;2286;51.570;7.090;2023-08-24T08:37:21;23.60;99.90
4548;DHT22;2286;51.570;7.090;2023-08-24T08:39:48;23.90;99.90
4548;DHT22;2286;51.570;7.090;2023-08-24T08:42:15;24.00;1.00
4548;DHT22;2286;51.570;7.090;2023-08-24T08:44:45;24.20;1.00
4548;DHT22;2286;51.570;7.090;2023-08-24T08:47:13;24.40;1.00
4548;DHT22;2286;51.570;7.090;2023-08-24T08:49:42;24.70;1.00
4548;DHT22;2286;51.570;7.090;2023-08-24T08:52:10;24.90;1.00
4548;DHT22;2286;51.570;7.090;2023-08-24T08:54:39;25.10;99.90
4548;DHT22;2286;51.570;7.090;2023-08-24T08:57:06;25.10;99.90
4548;DHT22;2286;51.570;7.090;2023-08-24T08:59:33;25.30;99.90
4548;DHT22;2286;51.570;7.090;2023-08-24T09:02:01;25.60;99.90
4548;DHT22;2286;51.570;7.090;2023-08-24T09:04:29;25.70;99.90
4548;DHT22;2286;51.570;7.090;2023-08-24T09:06:56;25.90;99.90
4548;DHT22;2286;51.570;7.090;2023-08-24T09:09:24;26.10;99.90
4548;DHT22;2286;51.570;7.090;2023-08-24T09:11:53;26.30;99.90
4548;DHT22;2286;51.570;7.090;2023-08-24T09:14:20;26.30;99.90
4548;DHT22;2286;51.570;7.090;2023-08-24T09:16:47;26.30;99.90
4548;DHT22;2286;51.570;7.090;2023-08-24T09:19:14;26.40;99.90
4548;DHT22;2286;51.570;7.090;2023-08-24T09:21:41;26.60;99.90
4548;DHT22;2286;51.570;7.090;2023-08-24T09:24:08;26.80;99.90
4548;DHT22;2286;51.570;7.090;2023-08-24T09:26:36;27.20;99.90
4548;DHT22;2286;51.570;7.090;2023-08-24T09:29:13;27.60;99.90
4548;DHT22;2286;51.570;7.090;2023-08-24T09:31:40;27.80;99.90
4548;DHT22;2286;51.570;7.090;2023-08-24T09:34:09;28.10;99.90
4548;DHT22;2286;51.570;7.090;2023-08-24T09:36:37;28.50;99.90
4548;DHT22;2286;51.570;7.090;2023-08-24T09:39:04;28.70;99.90
4548;DHT22;2286;51.570;7.090;2023-08-24T09:41:43;29.10;99.90
4548;DHT22;2286;51.570;7.090;2023-08-24T09:44:12;29.10;99.90
4548;DHT22;2286;51.570;7.090;2023-08-24T09:46:39;29.30;99.90
4548;DHT22;2286;51.570;7.090;2023-08-24T09:49:09;29.50;99.90
4548;DHT22;2286;51.570;7.090;2023-08-24T09:51:37;29.70;99.90
4548;DHT22;2286;51.570;7.090;2023-08-24T09:54:06;29.90;99.90
4548;DHT22;2286;51.570;7.090;2023-08-24T09:56:36;30.10;99.90
4548;DHT22;2286;51.570;7.090;2023-08-24T09:59:11;30.30;99.90
4548;DHT22;2286;51.570;7.090;2023-08-24T10:01:42;30.50;99.90
4548;DHT22;2286;51.570;7.090;2023-08-24T10:04:10;30.70;99.90
4548;DHT22;2286;51.570;7.090;2023-08-24T10:06:38;30.60;99.90
4548;DHT22;2286;51.570;7.090;2023-08-24T10:09:08;30.90;99.90
4548;DHT22;2286;51.570;7.090;2023-08-24T10:11:42;31.10;99.90
4548;DHT22;2286;51.570;7.090;2023-08-24T10:14:15;31.70;99.90
4548;DHT22;2286;51.570;7.090;2023-08-24T10:16:43;31.70;99.90
4548;DHT22;2286;51.570;7.090;2023-08-24T10:19:11;32.10;99.90
4548;DHT22;2286;51.570;7.090;2023-08-24T10:21:38;32.40;99.90
4548;DHT22;2286;51.570;7.090;2023-08-24T10:24:06;32.40;99.90
4548;DHT22;2286;51.570;7.090;2023-08-24T10:26:36;32.70;99.90
4548;DHT22;2286;51.570;7.090;2023-08-24T10:29:04;32.80;99.90
4548;DHT22;2286;51.570;7.090;2023-08-24T10:31:34;33.50;99.90
4548;DHT22;2286;51.570;7.090;2023-08-24T10:34:03;34.00;99.90
4548;DHT22;2286;51.570;7.090;2023-08-24T10:36:31;34.20;99.90
4548;DHT22;2286;51.570;7.090;2023-08-24T10:39:02;34.60;99.90
4548;DHT22;2286;51.570;7.090;2023-08-24T10:41:46;34.70;99.90
4548;DHT22;2286;51.570;7.090;2023-08-24T10:44:20;34.40;99.90
4548;DHT22;2286;51.570;7.090;2023-08-24T10:47:06;34.20;99.90
4548;DHT22;2286;51.570;7.090;2023-08-24T10:49:33;34.30;99.90
4548;DHT22;2286;51.570;7.090;2023-08-24T10:52:19;34.30;99.90
4548;DHT22;2286;51.570;7.090;2023-08-24T10:54:47;34.40;99.90
4548;DHT22;2286;51.570;7.090;2023-08-24T10:57:18;34.40;99.90
4548;DHT22;2286;51.570;7.090;2023-08-24T10:59:46;34.40;99.90
4548;DHT22;2286;51.570;7.090;2023-08-24T11:02:25;34.70;99.90
4548;DHT22;2286;51.570;7.090;2023-08-24T11:05:05;35.00;99.90
4548;DHT22;2286;51.570;7.090;2023-08-24T11:07:32;35.20;99.90
4548;DHT22;2286;51.570;7.090;2023-08-24T11:09:59;35.30;99.90
4548;DHT22;2286;51.570;7.090;2023-08-24T11:12:26;35.50;99.90
4548;DHT22;2286;51.570;7.090;2023-08-24T11:14:53;35.60;99.90
4548;DHT22;2286;51.570;7.090;2023-08-24T11:17:30;35.50;99.90
4548;DHT22;2286;51.570;7.090;2023-08-24T11:19:58;35.30;99.90
4548;DHT22;2286;51.570;7.090;2023-08-24T11:22:25;35.20;99.90
4548;DHT22;2286;51.570;7.090;2023-08-24T11:24:52;35.10;99.90
4548;DHT22;2286;51.570;7.090;2023-08-24T11:27:21;35.10;99.90
4548;DHT22;2286;51.570;7.090;2023-08-24T11:29:58;34.90;99.90
4548;DHT22;2286;51.570;7.090;2023-08-24T11:32:26;34.50;99.90
4548;DHT22;2286;51.570;7.090;2023-08-24T11:34:53;34.30;99.90
4548;DHT22;2286;51.570;7.090;2023-08-24T11:37:21;34.20;99.90
4548;DHT22;2286;51.570;7.090;2023-08-24T11:39:47;34.10;99.90
4548;DHT22;2286;51.570;7.090;2023-08-24T11:42:15;33.70;99.90
4548;DHT22;2286;51.570;7.090;2023-08-24T11:44:45;33.30;99.90
4548;DHT22;2286;51.570;7.090;2023-08-24T11:47:13;32.90;99.90
4548;DHT22;2286;51.570;7.090;2023-08-24T11:49:41;32.40;99.90
4548;DHT22;2286;51.570;7.090;2023-08-24T11:52:08;32.10;99.90
4548;DHT22;2286;51.570;7.090;2023-08-24T11:54:36;31.80;99.90
4548;DHT22;2286;51.570;7.090;2023-08-24T11:57:06;31.50;99.90
4548;DHT22;2286;51.570;7.090;2023-08-24T11:59:34;31.40;99.90
4548;DHT22;2286;51.570;7.090;2023-08-24T12:02:02;30.90;99.90
4548;DHT22;2286;51.570;7.090;2023-08-24T12:04:38;30.50;99.90
4548;DHT22;2286;51.570;7.090;2023-08-24T12:07:10;30.40;99.90
4548;DHT22;2286;51.570;7.090;2023-08-24T12:09:37;30.60;99.90
4548;DHT22;2286;51.570;7.090;2023-08-24T12:12:05;30.70;99.90
4548;DHT22;2286;51.570;7.090;2023-08-24T12:14:40;30.80;99.90
4548;DHT22;2286;51.570;7.090;2023-08-24T12:17:07;30.90;99.90
4548;DHT22;2286;51.570;7.090;2023-08-24T12:19:34;31.00;99.90
4548;DHT22;2286;51.570;7.090;2023-08-24T12:22:01;31.30;99.90
4548;DHT22;2286;51.570;7.090;2023-08-24T12:24:31;31.40;99.90
4548;DHT22;2286;51.570;7.090;2023-08-24T12:26:58;31.00;99.90
4548;DHT22;2286;51.570;7.090;2023-08-24T12:29:25;31.00;99.90
4548;DHT22;2286;51.570;7.090;2023-08-24T12:31:57;30.70;99.90
4548;DHT22;2286;51.570;7.090;2023-08-24T12:34:24;30.40;99.90
4548;DHT22;2286;51.570;7.090;2023-08-24T12:36:51;30.50;99.90
4548;DHT22;2286;51.570;7.090;2023-08-24T12:39:17;30.60;99.90
4548;DHT22;2286;51.570;7.090;2023-08-24T12:41:46;30.50;99.90
4548;DHT22;2286;51.570;7.090;2023-08-24T12:44:13;30.30;99.90
4548;DHT22;2286;51.570;7.090;2023-08-24T12:46:40;30.30;99.90
4548;DHT22;2286;51.570;7.090;2023-08-24T12:49:07;30.20;99.90
4548;DHT22;2286;51.570;7.090;2023-08-24T12:51:34;30.30;99.90
4548;DHT22;2286;51.570;7.090;2023-08-24T12:54:01;30.10;99.90
4548;DHT22;2286;51.570;7.090;2023-08-24T12:56:28;30.00;99.90
4548;DHT22;2286;51.570;7.090;2023-08-24T12:58:56;29.70;99.90
4548;DHT22;2286;51.570;7.090;2023-08-24T13:01:23;29.60;99.90
4548;DHT22;2286;51.570;7.090;2023-08-24T13:03:50;29.40;99.90
4548;DHT22;2286;51.570;7.090;2023-08-24T13:06:16;29.20;99.90
4548;DHT22;2286;51.570;7.090;2023-08-24T13:08:43;28.90;99.90
4548;DHT22;2286;51.570;7.090;2023-08-24T13:11:10;28.70;99.90
4548;DHT22;2286;51.570;7.090;2023-08-24T13:13:37;28.40;99.90
4548;DHT22;2286;51.570;7.090;2023-08-24T13:16:05;28.10;99.90
4548;DHT22;2286;51.570;7.090;2023-08-24T13:18:33;28.00;99.90
4548;DHT22;2286;51.570;7.090;2023-08-24T13:20:59;28.10;99.90
4548;DHT22;2286;51.570;7.090;2023-08-24T13:23:26;28.10;99.90
4548;DHT22;2286;51.570;7.090;2023-08-24T13:25:53;27.90;99.90
4548;DHT22;2286;51.570;7.090;2023-08-24T13:28:21;27.90;99.90
4548;DHT22;2286;51.570;7.090;2023-08-24T13:30:48;27.90;99.90
4548;DHT22;2286;51.570;7.090;2023-08-24T13:33:16;28.10;99.90
4548;DHT22;2286;51.570;7.090;2023-08-24T13:35:44;28.10;99.90
4548;DHT22;2286;51.570;7.090;2023-08-24T13:38:10;28.30;99.90
4548;DHT22;2286;51.570;7.090;2023-08-24T13:40:37;28.60;99.90
4548;DHT22;2286;51.570;7.090;2023-08-24T13:43:04;29.00;99.90
4548;DHT22;2286;51.570;7.090;2023-08-24T13:45:31;29.20;99.90
4548;DHT22;2286;51.570;7.090;2023-08-24T13:48:00;29.30;99.90
4548;DHT22;2286;51.570;7.090;2023-08-24T13:50:29;29.40;99.90
4548;DHT22;2286;51.570;7.090;2023-08-24T13:52:56;29.30;99.90
4548;DHT22;2286;51.570;7.090;2023-08-24T13:55:22;29.40;99.90
4548;DHT22;2286;51.570;7.090;2023-08-24T13:57:50;29.20;99.90
4548;DHT22;2286;51.570;7.090;2023-08-24T14:00:17;29.30;99.90
4548;DHT22;2286;51.570;7.090;2023-08-24T14:02:44;29.10;99.90
4548;DHT22;2286;51.570;7.090;2023-08-24T14:05:13;29.10;99.90
4548;DHT22;2286;51.570;7.090;2023-08-24T14:07:41;28.80;99.90
4548;DHT22;2286;51.570;7.090;2023-08-24T14:10:09;28.50;99.90
4548;DHT22;2286;51.570;7.090;2023-08-24T14:12:36;28.40;99.90
4548;DHT22;2286;51.570;7.090;2023-08-24T14:15:03;28.20;99.90
4548;DHT22;2286;51.570;7.090;2023-08-24T14:17:31;28.40;99.90
4548;DHT22;2286;51.570;7.090;2023-08-24T14:19:58;28.30;99.90
4548;DHT22;2286;51.570;7.090;2023-08-24T14:22:25;28.00;99.90
4548;DHT22;2286;51.570;7.090;2023-08-24T14:24:53;27.90;99.90
4548;DHT22;2286;51.570;7.090;2023-08-24T14:27:20;27.90;99.90
4548;DHT22;2286;51.570;7.090;2023-08-24T14:29:47;27.80;99.90
4548;DHT22;2286;51.570;7.090;2023-08-24T14:32:14;27.60;99.90
4548;DHT22;2286;51.570;7.090;2023-08-24T14:34:41;27.40;99.90
4548;DHT22;2286;51.570;7.090;2023-08-24T14:37:08;27.30;99.90
4548;DHT22;2286;51.570;7.090;2023-08-24T14:39:35;27.40;99.90
4548;DHT22;2286;51.570;7.090;2023-08-24T14:42:04;27.40;99.90
4548;DHT22;2286;51.570;7.090;2023-08-24T14:44:31;27.50;99.90
4548;DHT22;2286;51.570;7.090;2023-08-24T14:46:58;27.40;99.90
4548;DHT22;2286;51.570;7.090;2023-08-24T14:49:24;27.40;99.90
4548;DHT22;2286;51.570;7.090;2023-08-24T14:51:51;27.20;99.90
4548;DHT22;2286;51.570;7.090;2023-08-24T14:54:18;27.00;99.90
4548;DHT22;2286;51.570;7.090;2023-08-24T14:56:45;27.00;99.90
4548;DHT22;2286;51.570;7.090;2023-08-24T14:59:13;27.00;99.90
4548;DHT22;2286;51.570;7.090;2023-08-24T15:01:40;27.10;99.90
4548;DHT22;2286;51.570;7.090;2023-08-24T15:04:07;27.10;99.90
4548;DHT22;2286;51.570;7.090;2023-08-24T15:06:34;27.20;99.90
4548;DHT22;2286;51.570;7.090;2023-08-24T15:09:01;27.10;99.90
4548;DHT22;2286;51.570;7.090;2023-08-24T15:11:29;27.00;99.90
4548;DHT22;2286;51.570;7.090;2023-08-24T15:13:56;26.80;99.90
4548;DHT22;2286;51.570;7.090;2023-08-24T15:16:24;26.70;99.90
4548;DHT22;2286;51.570;7.090;2023-08-24T15:18:51;26.60;99.90
4548;DHT22;2286;51.570;7.090;2023-08-24T15:21:19;26.60;99.90
4548;DHT22;2286;51.570;7.090;2023-08-24T15:23:46;26.40;99.90
4548;DHT22;2286;51.570;7.090;2023-08-24T15:26:12;26.30;99.90
4548;DHT22;2286;51.570;7.090;2023-08-24T15:29:07;26.00;1.00
4548;DHT22;2286;51.570;7.090;2023-08-24T15:31:35;26.00;1.00
4548;DHT22;2286;51.570;7.090;2023-08-24T15:34:02;26.00;1.00
4548;DHT22;2286;51.570;7.090;2023-08-24T15:36:29;25.90;1.00
4548;DHT22;2286;51.570;7.090;2023-08-24T15:38:56;25.80;1.00
4548;DHT22;2286;51.570;7.090;2023-08-24T15:41:22;25.70;1.00
4548;DHT22;2286;51.570;7.090;2023-08-24T15:43:50;25.70;1.00
4548;DHT22;2286;51.570;7.090;2023-08-24T15:46:16;25.70;1.00
4548;DHT22;2286;51.570;7.090;2023-08-24T15:48:45;25.60;1.00
4548;DHT22;2286;51.570;7.090;2023-08-24T15:51:12;25.40;1.00
4548;DHT22;2286;51.570;7.090;2023-08-24T15:53:39;25.40;1.00
4548;DHT22;2286;51.570;7.090;2023-08-24T15:56:05;25.40;1.00
4548;DHT22;2286;51.570;7.090;2023-08-24T15:58:32;25.30;1.00
4548;DHT22;2286;51.570;7.090;2023-08-24T16:00:59;25.10;1.00
4548;DHT22;2286;51.570;7.090;2023-08-24T16:03:28;25.00;1.00
4548;DHT22;2286;51.570;7.090;2023-08-24T16:05:57;24.90;1.00
4548;DHT22;2286;51.570;7.090;2023-08-24T16:08:24;24.80;1.00
4548;DHT22;2286;51.570;7.090;2023-08-24T16:10:55;24.60;1.00
4548;DHT22;2286;51.570;7.090;2023-08-24T16:13:22;24.40;1.00
4548;DHT22;2286;51.570;7.090;2023-08-24T16:15:49;24.30;99.90